sensor_id;sensor_type;location;lat;lon;timestamp;temperature;humidity
59961;DHT22;55902;-37.980;-63.602;2023-04-06T00:00:41;19.70;99.90
59961;DHT22;55902;-37.980;-63.602;2023-04-06T00:03:08;19.70;99.90
59961;DHT22;55902;-37.980;-63.602;2023-04-06T00:05:35;19.60;99.90
59961;DHT22;55902;-37.980;-63.602;2023-04-06T00:08:02;19.60;99.90
59961;DHT22;55902;-37.980;-63.602;2023-04-06T00:10:29;19.60;99.90
59961;DHT22;55902;-37.980;-63.602;2023-04-06T00:12:57;19.50;99.90
59961;DHT22;55902;-37.980;-63.602;2023-04-06T00:15:24;19.50;99.90
59961;DHT22;55902;-37.980;-63.602;2023-04-06T00:17:51;19.50;99.90
59961;DHT22;55902;-37.980;-63.602;2023-04-06T00:20:19;19.50;99.90
59961;DHT22;55902;-37.980;-63.602;2023-04-06T00:22:46;19.40;99.90
59961;DHT22;55902;-37.980;-63.602;2023-04-06T00:25:13;19.50;99.90
59961;DHT22;55902;-37.980;-63.602;2023-04-06T00:27:41;19.50;99.90
59961;DHT22;55902;-37.980;-63.602;2023-04-06T00:30:09;19.40;99.90
59961;DHT22;55902;-37.980;-63.602;2023-04-06T00:32:36;19.40;99.90
59961;DHT22;55902;-37.980;-63.602;2023-04-06T00:35:04;19.30;99.90
59961;DHT22;55902;-37.980;-63.602;2023-04-06T00:37:32;19.30;99.90
59961;DHT22;55902;-37.980;-63.602;2023-04-06T00:39:59;19.30;99.90
59961;DHT22;55902;-37.980;-63.602;2023-04-06T00:42:26;19.30;99.90
59961;DHT22;55902;-37.980;-63.602;2023-04-06T00:44:58;19.30;99.90
59961;DHT22;55902;-37.980;-63.602;2023-04-06T00:47:26;19.30;99.90
59961;DHT22;55902;-37.980;-63.602;2023-04-06T00:49:53;19.30;99.90
59961;DHT22;55902;-37.980;-63.602;2023-04-06T00:52:21;19.30;99.90
59961;DHT22;55902;-37.980;-63.602;2023-04-06T00:54:49;19.30;99.90
59961;DHT22;55902;-37.980;-63.602;2023-04-06T00:57:17;19.40;99.90
59961;DHT22;55902;-37.980;-63.602;2023-04-06T00:59:44;19.40;99.90
59961;DHT22;55902;-37.980;-63.602;2023-04-06T01:02:11;19.40;99.90
59961;DHT22;55902;-37.980;-63.602;2023-04-06T01:04:38;19.40;99.90
59961;DHT22;55902;-37.980;-63.602;2023-04-06T01:07:06;19.50;99.90
59961;DHT22;55902;-37.980;-63.602;2023-04-06T01:09:33;19.50;99.90
59961;DHT22;55902;-37.980;-63.602;2023-04-06T01:12:00;19.50;99.90
59961;DHT22;55902;-37.980;-63.602;2023-04-06T01:14:27;19.50;99.90
59961;DHT22;55902;-37.980;-63.602;2023-04-06T01:16:54;19.50;99.90
59961;DHT22;55902;-37.980;-63.602;2023-04-06T01:19:22;19.50;99.90
59961;DHT22;55902;-37.980;-63.602;2023-04-06T01:25:11;19.50;99.90
59961;DHT22;55902;-37.980;-63.602;2023-04-06T01:27:39;19.50;99.90
59961;DHT22;55902;-37.980;-63.602;2023-04-06T01:30:07;19.50;99.90
59961;DHT22;55902;-37.980;-63.602;2023-04-06T01:32:34;19.40;99.90
59961;DHT22;55902;-37.980;-63.602;2023-04-06T01:35:01;19.40;99.90
59961;DHT22;55902;-37.980;-63.602;2023-04-06T01:37:28;19.30;99.90
59961;DHT22;55902;-37.980;-63.602;2023-04-06T01:39:58;19.30;99.90
59961;DHT22;55902;-37.980;-63.602;2023-04-06T01:42:25;19.30;99.90
59961;DHT22;55902;-37.980;-63.602;2023-04-06T01:44:52;19.30;99.90
59961;DHT22;55902;-37.980;-63.602;2023-04-06T01:47:19;19.20;99.90
59961;DHT22;55902;-37.980;-63.602;2023-04-06T01:49:46;19.10;99.90
59961;DHT22;55902;-37.980;-63.602;2023-04-06T01:52:13;19.10;99.90
59961;DHT22;55902;-37.980;-63.602;2023-04-06T01:54:40;19.10;99.90
59961;DHT22;55902;-37.980;-63.602;2023-04-06T01:57:07;19.10;99.90
59961;DHT22;55902;-37.980;-63.602;2023-04-06T01:59:34;19.00;99.90
59961;DHT22;55902;-37.980;-63.602;2023-04-06T02:02:01;19.00;99.90
59961;DHT22;55902;-37.980;-63.602;2023-04-06T02:04:28;19.00;99.90
59961;DHT22;55902;-37.980;-63.602;2023-04-06T02:06:55;19.00;99.90
59961;DHT22;55902;-37.980;-63.602;2023-04-06T02:09:22;19.00;99.90
59961;DHT22;55902;-37.980;-63.602;2023-04-06T02:11:49;19.00;99.90
59961;DHT22;55902;-37.980;-63.602;2023-04-06T02:14:16;19.00;99.90
59961;DHT22;55902;-37.980;-63.602;2023-04-06T02:16:43;19.00;99.90
59961;DHT22;55902;-37.980;-63.602;2023-04-06T02:19:10;18.90;99.90
59961;DHT22;55902;-37.980;-63.602;2023-04-06T02:21:37;18.90;99.90
59961;DHT22;55902;-37.980;-63.602;2023-04-06T02:24:04;18.90;99.90
59961;DHT22;55902;-37.980;-63.602;2023-04-06T02:26:31;18.90;99.90
59961;DHT22;55902;-37.980;-63.602;2023-04-06T02:28:58;18.80;99.90
59961;DHT22;55902;-37.980;-63.602;2023-04-06T02:31:28;18.80;99.90
59961;DHT22;55902;-37.980;-63.602;2023-04-06T02:33:55;18.80;99.90
59961;DHT22;55902;-37.980;-63.602;2023-04-06T02:36:22;18.80;99.90
59961;DHT22;55902;-37.980;-63.602;2023-04-06T02:38:49;18.80;99.90
59961;DHT22;55902;-37.980;-63.602;2023-04-06T02:41:16;18.80;99.90
59961;DHT22;55902;-37.980;-63.602;2023-04-06T02:43:43;18.80;99.90
59961;DHT22;55902;-37.980;-63.602;2023-04-06T02:46:10;18.80;99.90
59961;DHT22;55902;-37.980;-63.602;2023-04-06T02:48:37;18.80;99.90
59961;DHT22;55902;-37.980;-63.602;2023-04-06T02:51:04;18.80;99.90
59961;DHT22;55902;-37.980;-63.602;2023-04-06T02:53:32;18.80;99.90
59961;DHT22;55902;-37.980;-63.602;2023-04-06T02:55:59;18.80;99.90
59961;DHT22;55902;-37.980;-63.602;2023-04-06T02:58:26;18.80;99.90
59961;DHT22;55902;-37.980;-63.602;2023-04-06T03:00:53;18.80;99.90
59961;DHT22;55902;-37.980;-63.602;2023-04-06T03:03:20;18.80;99.90
59961;DHT22;55902;-37.980;-63.602;2023-04-06T03:05:47;18.80;99.90
59961;DHT22;55902;-37.980;-63.602;2023-04-06T03:08:14;18.80;99.90
59961;DHT22;55902;-37.980;-63.602;2023-04-06T03:10:41;18.70;99.90
59961;DHT22;55902;-37.980;-63.602;2023-04-06T03:13:08;18.70;99.90
59961;DHT22;55902;-37.980;-63.602;2023-04-06T03:15:35;18.70;99.90
59961;DHT22;55902;-37.980;-63.602;2023-04-06T03:18:02;18.70;99.90
59961;DHT22;55902;-37.980;-63.602;2023-04-06T03:20:29;18.70;99.90
59961;DHT22;55902;-37.980;-63.602;2023-04-06T03:22:56;18.70;99.90
59961;DHT22;55902;-37.980;-63.602;2023-04-06T03:25:23;18.60;99.90
59961;DHT22;55902;-37.980;-63.602;2023-04-06T03:27:50;18.60;99.90
59961;DHT22;55902;-37.980;-63.602;2023-04-06T03:30:18;18.50;99.90
59961;DHT22;55902;-37.980;-63.602;2023-04-06T03:32:45;18.50;99.90
59961;DHT22;55902;-37.980;-63.602;2023-04-06T03:35:12;18.50;99.90
59961;DHT22;55902;-37.980;-63.602;2023-04-06T03:37:39;18.50;99.90
59961;DHT22;55902;-37.980;-63.602;2023-04-06T03:40:07;18.50;99.90
59961;DHT22;55902;-37.980;-63.602;2023-04-06T03:42:37;18.40;99.90
59961;DHT22;55902;-37.980;-63.602;2023-04-06T03:45:04;18.40;99.90
59961;DHT22;55902;-37.980;-63.602;2023-04-06T03:47:31;18.40;99.90
59961;DHT22;55902;-37.980;-63.602;2023-04-06T03:49:58;18.40;99.90
59961;DHT22;55902;-37.980;-63.602;2023-04-06T03:52:25;18.40;99.90
59961;DHT22;55902;-37.980;-63.602;2023-04-06T03:54:53;18.40;99.90
59961;DHT22;55902;-37.980;-63.602;2023-04-06T03:57:19;18.40;99.90
59961;DHT22;55902;-37.980;-63.602;2023-04-06T03:59:46;18.40;99.90
59961;DHT22;55902;-37.980;-63.602;2023-04-06T04:02:13;18.40;99.90
59961;DHT22;55902;-37.980;-63.602;2023-04-06T04:04:40;18.40;99.90
59961;DHT22;55902;-37.980;-63.602;2023-04-06T04:07:07;18.40;99.90
59961;DHT22;55902;-37.980;-63.602;2023-04-06T04:09:34;18.40;99.90
59961;DHT22;55902;-37.980;-63.602;2023-04-06T04:12:01;18.40;99.90
59961;DHT22;55902;-37.980;-63.602;2023-04-06T04:14:28;18.40;99.90
59961;DHT22;55902;-37.980;-63.602;2023-04-06T04:16:55;18.40;99.90
59961;DHT22;55902;-37.980;-63.602;2023-04-06T04:19:22;18.40;99.90
59961;DHT22;55902;-37.980;-63.602;2023-04-06T04:21:49;18.40;99.90
59961;DHT22;55902;-37.980;-63.602;2023-04-06T04:24:16;18.40;99.90
59961;DHT22;55902;-37.980;-63.602;2023-04-06T04:26:43;18.30;99.90
59961;DHT22;55902;-37.980;-63.602;2023-04-06T04:29:10;18.40;99.90
59961;DHT22;55902;-37.980;-63.602;2023-04-06T04:31:37;18.30;99.90
59961;DHT22;55902;-37.980;-63.602;2023-04-06T04:44:10;18.30;99.90
59961;DHT22;55902;-37.980;-63.602;2023-04-06T04:46:37;18.30;99.90
59961;DHT22;55902;-37.980;-63.602;2023-04-06T04:49:04;18.20;99.90
59961;DHT22;55902;-37.980;-63.602;2023-04-06T04:51:31;18.20;99.90
59961;DHT22;55902;-37.980;-63.602;2023-04-06T04:53:58;18.20;99.90
59961;DHT22;55902;-37.980;-63.602;2023-04-06T04:56:26;18.20;99.90
59961;DHT22;55902;-37.980;-63.602;2023-04-06T04:58:53;18.20;99.90
59961;DHT22;55902;-37.980;-63.602;2023-04-06T05:01:20;18.20;99.90
59961;DHT22;55902;-37.980;-63.602;2023-04-06T05:03:47;18.20;99.90
59961;DHT22;55902;-37.980;-63.602;2023-04-06T05:06:14;18.20;99.90
59961;DHT22;55902;-37.980;-63.602;2023-04-06T05:08:42;18.20;99.90
59961;DHT22;55902;-37.980;-63.602;2023-04-06T05:11:09;18.20;99.90
59961;DHT22;55902;-37.980;-63.602;2023-04-06T05:13:36;18.20;99.90
59961;DHT22;55902;-37.980;-63.602;2023-04-06T05:16:03;18.20;99.90
59961;DHT22;55902;-37.980;-63.602;2023-04-06T05:18:30;18.20;99.90
59961;DHT22;55902;-37.980;-63.602;2023-04-06T05:20:57;18.20;99.90
59961;DHT22;55902;-37.980;-63.602;2023-04-06T05:23:25;18.20;99.90
59961;DHT22;55902;-37.980;-63.602;2023-04-06T05:25:52;18.20;99.90
59961;DHT22;55902;-37.980;-63.602;2023-04-06T05:28:18;18.30;99.90
59961;DHT22;55902;-37.980;-63.602;2023-04-06T05:30:46;18.30;99.90
59961;DHT22;55902;-37.980;-63.602;2023-04-06T05:33:13;18.30;99.90
59961;DHT22;55902;-37.980;-63.602;2023-04-06T05:35:40;18.30;99.90
59961;DHT22;55902;-37.980;-63.602;2023-04-06T05:38:08;18.30;99.90
59961;DHT22;55902;-37.980;-63.602;2023-04-06T05:40:38;18.30;99.90
59961;DHT22;55902;-37.980;-63.602;2023-04-06T05:43:07;18.30;99.90
59961;DHT22;55902;-37.980;-63.602;2023-04-06T05:45:34;18.30;99.90
59961;DHT22;55902;-37.980;-63.602;2023-04-06T05:48:02;18.30;99.90
59961;DHT22;55902;-37.980;-63.602;2023-04-06T05:50:29;18.30;99.90
59961;DHT22;55902;-37.980;-63.602;2023-04-06T05:52:56;18.30;99.90
59961;DHT22;55902;-37.980;-63.602;2023-04-06T05:55:23;18.30;99.90
59961;DHT22;55902;-37.980;-63.602;2023-04-06T05:57:50;18.30;99.90
59961;DHT22;55902;-37.980;-63.602;2023-04-06T06:00:17;18.30;99.90
59961;DHT22;55902;-37.980;-63.602;2023-04-06T06:02:44;18.30;99.90
59961;DHT22;55902;-37.980;-63.602;2023-04-06T06:05:11;18.30;99.90
59961;DHT22;55902;-37.980;-63.602;2023-04-06T06:07:38;18.30;99.90
59961;DHT22;55902;-37.980;-63.602;2023-04-06T06:10:05;18.20;99.90
59961;DHT22;55902;-37.980;-63.602;2023-04-06T06:12:32;18.20;99.90
59961;DHT22;55902;-37.980;-63.602;2023-04-06T06:14:59;18.20;99.90
59961;DHT22;55902;-37.980;-63.602;2023-04-06T06:17:26;18.20;99.90
59961;DHT22;55902;-37.980;-63.602;2023-04-06T06:19:53;18.20;99.90
59961;DHT22;55902;-37.980;-63.602;2023-04-06T06:22:20;18.20;99.90
59961;DHT22;55902;-37.980;-63.602;2023-04-06T06:24:47;18.10;99.90
59961;DHT22;55902;-37.980;-63.602;2023-04-06T06:27:15;18.10;99.90
59961;DHT22;55902;-37.980;-63.602;2023-04-06T06:29:42;18.00;99.90
59961;DHT22;55902;-37.980;-63.602;2023-04-06T06:32:09;18.00;99.90
59961;DHT22;55902;-37.980;-63.602;2023-04-06T06:34:36;18.00;99.90
59961;DHT22;55902;-37.980;-63.602;2023-04-06T06:37:03;18.00;99.90
59961;DHT22;55902;-37.980;-63.602;2023-04-06T06:39:31;18.00;99.90
59961;DHT22;55902;-37.980;-63.602;2023-04-06T06:41:58;18.00;99.90
59961;DHT22;55902;-37.980;-63.602;2023-04-06T06:44:27;18.00;99.90
59961;DHT22;55902;-37.980;-63.602;2023-04-06T06:46:54;18.00;99.90
59961;DHT22;55902;-37.980;-63.602;2023-04-06T06:49:22;18.00;99.90
59961;DHT22;55902;-37.980;-63.602;2023-04-06T06:51:49;17.90;99.90
59961;DHT22;55902;-37.980;-63.602;2023-04-06T06:54:16;18.00;99.90
59961;DHT22;55902;-37.980;-63.602;2023-04-06T06:56:43;18.00;99.90
59961;DHT22;55902;-37.980;-63.602;2023-04-06T06:59:10;18.00;99.90
59961;DHT22;55902;-37.980;-63.602;2023-04-06T07:01:37;18.00;99.90
59961;DHT22;55902;-37.980;-63.602;2023-04-06T07:04:04;18.00;99.90
59961;DHT22;55902;-37.980;-63.602;2023-04-06T07:06:31;17.90;99.90
59961;DHT22;55902;-37.980;-63.602;2023-04-06T07:08:58;18.00;99.90
59961;DHT22;55902;-37.980;-63.602;2023-04-06T07:11:25;18.00;99.90
59961;DHT22;55902;-37.980;-63.602;2023-04-06T07:13:52;18.00;99.90
59961;DHT22;55902;-37.980;-63.602;2023-04-06T07:16:19;18.00;99.90
59961;DHT22;55902;-37.980;-63.602;2023-04-06T07:18:46;17.90;99.90
59961;DHT22;55902;-37.980;-63.602;2023-04-06T07:21:13;17.90;99.90
59961;DHT22;55902;-37.980;-63.602;2023-04-06T07:23:40;17.90;99.90
59961;DHT22;55902;-37.980;-63.602;2023-04-06T07:26:07;17.80;99.90
59961;DHT22;55902;-37.980;-63.602;2023-04-06T07:28:34;17.90;99.90
59961;DHT22;55902;-37.980;-63.602;2023-04-06T07:31:01;17.80;99.90
59961;DHT22;55902;-37.980;-63.602;2023-04-06T07:33:28;17.80;99.90
59961;DHT22;55902;-37.980;-63.602;2023-04-06T07:35:56;17.80;99.90
59961;DHT22;55902;-37.980;-63.602;2023-04-06T07:38:24;17.80;99.90
59961;DHT22;55902;-37.980;-63.602;2023-04-06T07:40:51;17.70;99.90
59961;DHT22;55902;-37.980;-63.602;2023-04-06T07:43:18;17.70;99.90
59961;DHT22;55902;-37.980;-63.602;2023-04-06T07:45:45;17.70;99.90
59961;DHT22;55902;-37.980;-63.602;2023-04-06T07:48:12;17.70;99.90
59961;DHT22;55902;-37.980;-63.602;2023-04-06T07:50:39;17.60;99.90
59961;DHT22;55902;-37.980;-63.602;2023-04-06T07:53:06;17.60;99.90
59961;DHT22;55902;-37.980;-63.602;2023-04-06T07:55:33;17.70;99.90
59961;DHT22;55902;-37.980;-63.602;2023-04-06T07:58:00;17.70;99.90
59961;DHT22;55902;-37.980;-63.602;2023-04-06T08:00:27;17.60;99.90
59961;DHT22;55902;-37.980;-63.602;2023-04-06T08:02:54;17.60;99.90
59961;DHT22;55902;-37.980;-63.602;2023-04-06T08:05:21;17.70;99.90
59961;DHT22;55902;-37.980;-63.602;2023-04-06T08:07:48;17.70;99.90
59961;DHT22;55902;-37.980;-63.602;2023-04-06T08:10:15;17.70;99.90
59961;DHT22;55902;-37.980;-63.602;2023-04-06T08:12:41;17.70;99.90
59961;DHT22;55902;-37.980;-63.602;2023-04-06T08:15:09;17.70;99.90
59961;DHT22;55902;-37.980;-63.602;2023-04-06T08:17:36;17.70;99.90
59961;DHT22;55902;-37.980;-63.602;2023-04-06T08:20:03;17.70;99.90
59961;DHT22;55902;-37.980;-63.602;2023-04-06T08:22:30;17.70;99.90
59961;DHT22;55902;-37.980;-63.602;2023-04-06T08:24:57;17.70;99.90
59961;DHT22;55902;-37.980;-63.602;2023-04-06T08:27:24;17.80;99.90
59961;DHT22;55902;-37.980;-63.602;2023-04-06T08:29:51;17.80;99.90
59961;DHT22;55902;-37.980;-63.602;2023-04-06T08:32:18;17.80;99.90
59961;DHT22;55902;-37.980;-63.602;2023-04-06T08:34:45;17.80;99.90
59961;DHT22;55902;-37.980;-63.602;2023-04-06T08:37:12;17.80;99.90
59961;DHT22;55902;-37.980;-63.602;2023-04-06T08:39:39;17.90;99.90
59961;DHT22;55902;-37.980;-63.602;2023-04-06T08:42:16;18.00;99.90
59961;DHT22;55902;-37.980;-63.602;2023-04-06T08:44:45;18.00;99.90
59961;DHT22;55902;-37.980;-63.602;2023-04-06T08:47:13;18.10;99.90
59961;DHT22;55902;-37.980;-63.602;2023-04-06T08:49:40;18.10;99.90
59961;DHT22;55902;-37.980;-63.602;2023-04-06T08:52:07;18.20;99.90
59961;DHT22;55902;-37.980;-63.602;2023-04-06T08:54:35;18.20;99.90
59961;DHT22;55902;-37.980;-63.602;2023-04-06T08:57:03;18.20;99.90
59961;DHT22;55902;-37.980;-63.602;2023-04-06T08:59:33;18.30;99.90
59961;DHT22;55902;-37.980;-63.602;2023-04-06T09:02:04;18.30;99.90
59961;DHT22;55902;-37.980;-63.602;2023-04-06T09:04:33;18.30;99.90
59961;DHT22;55902;-37.980;-63.602;2023-04-06T09:07:01;18.30;99.90
59961;DHT22;55902;-37.980;-63.602;2023-04-06T09:09:28;18.30;99.90
59961;DHT22;55902;-37.980;-63.602;2023-04-06T09:11:55;18.40;99.90
59961;DHT22;55902;-37.980;-63.602;2023-04-06T09:14:35;18.40;99.90
59961;DHT22;55902;-37.980;-63.602;2023-04-06T09:17:04;18.50;99.90
59961;DHT22;55902;-37.980;-63.602;2023-04-06T09:19:31;18.50;99.90
59961;DHT22;55902;-37.980;-63.602;2023-04-06T09:22:05;18.50;99.90
59961;DHT22;55902;-37.980;-63.602;2023-04-06T09:24:49;18.50;99.90
59961;DHT22;55902;-37.980;-63.602;2023-04-06T09:27:16;18.50;99.90
59961;DHT22;55902;-37.980;-63.602;2023-04-06T09:29:44;18.50;99.90
59961;DHT22;55902;-37.980;-63.602;2023-04-06T09:32:12;18.60;99.90
59961;DHT22;55902;-37.980;-63.602;2023-04-06T09:34:42;18.60;99.90
59961;DHT22;55902;-37.980;-63.602;2023-04-06T09:37:18;18.60;99.90
59961;DHT22;55902;-37.980;-63.602;2023-04-06T09:39:46;18.70;99.90
59961;DHT22;55902;-37.980;-63.602;2023-04-06T09:42:24;18.70;99.90
59961;DHT22;55902;-37.980;-63.602;2023-04-06T09:44:51;18.80;99.90
59961;DHT22;55902;-37.980;-63.602;2023-04-06T09:47:20;18.80;99.90
59961;DHT22;55902;-37.980;-63.602;2023-04-06T09:49:50;18.80;99.90
59961;DHT22;55902;-37.980;-63.602;2023-04-06T09:52:26;18.80;99.90
59961;DHT22;55902;-37.980;-63.602;2023-04-06T09:54:55;18.80;99.90
59961;DHT22;55902;-37.980;-63.602;2023-04-06T09:57:32;18.80;99.90
59961;DHT22;55902;-37.980;-63.602;2023-04-06T10:00:09;18.80;99.90
59961;DHT22;55902;-37.980;-63.602;2023-04-06T10:05:46;18.60;99.90
59961;DHT22;55902;-37.980;-63.602;2023-04-06T10:08:15;18.50;99.90
59961;DHT22;55902;-37.980;-63.602;2023-04-06T10:10:43;18.50;99.90
59961;DHT22;55902;-37.980;-63.602;2023-04-06T10:13:12;18.40;99.90
59961;DHT22;55902;-37.980;-63.602;2023-04-06T10:15:39;18.40;99.90
59961;DHT22;55902;-37.980;-63.602;2023-04-06T10:18:06;18.30;99.90
59961;DHT22;55902;-37.980;-63.602;2023-04-06T10:20:56;18.40;99.90
59961;DHT22;55902;-37.980;-63.602;2023-04-06T10:25:55;18.30;99.90
59961;DHT22;55902;-37.980;-63.602;2023-04-06T10:28:23;18.40;99.90
59961;DHT22;55902;-37.980;-63.602;2023-04-06T10:34:12;18.30;99.90
59961;DHT22;55902;-37.980;-63.602;2023-04-06T10:36:39;18.30;99.90
59961;DHT22;55902;-37.980;-63.602;2023-04-06T10:39:06;18.40;99.90
59961;DHT22;55902;-37.980;-63.602;2023-04-06T10:41:44;18.40;99.90
59961;DHT22;55902;-37.980;-63.602;2023-04-06T10:44:23;18.40;99.90
59961;DHT22;55902;-37.980;-63.602;2023-04-06T10:46:58;18.50;99.90
59961;DHT22;55902;-37.980;-63.602;2023-04-06T10:49:28;18.50;99.90
59961;DHT22;55902;-37.980;-63.602;2023-04-06T10:51:56;18.50;99.90
59961;DHT22;55902;-37.980;-63.602;2023-04-06T10:54:25;18.50;99.90
59961;DHT22;55902;-37.980;-63.602;2023-04-06T10:56:53;18.50;99.90
59961;DHT22;55902;-37.980;-63.602;2023-04-06T10:59:21;18.50;99.90
59961;DHT22;55902;-37.980;-63.602;2023-04-06T11:01:48;18.60;99.90
59961;DHT22;55902;-37.980;-63.602;2023-04-06T11:04:19;18.60;99.90
59961;DHT22;55902;-37.980;-63.602;2023-04-06T11:06:48;18.60;99.90
59961;DHT22;55902;-37.980;-63.602;2023-04-06T11:11:53;18.70;99.90
59961;DHT22;55902;-37.980;-63.602;2023-04-06T11:14:20;18.70;99.90
59961;DHT22;55902;-37.980;-63.602;2023-04-06T11:16:48;18.70;99.90
59961;DHT22;55902;-37.980;-63.602;2023-04-06T11:19:18;18.80;99.90
59961;DHT22;55902;-37.980;-63.602;2023-04-06T11:21:46;18.70;99.90
59961;DHT22;55902;-37.980;-63.602;2023-04-06T11:24:24;18.60;99.90
59961;DHT22;55902;-37.980;-63.602;2023-04-06T11:26:57;18.60;99.90
59961;DHT22;55902;-37.980;-63.602;2023-04-06T11:29:28;18.50;99.90
59961;DHT22;55902;-37.980;-63.602;2023-04-06T11:32:00;18.50;99.90
59961;DHT22;55902;-37.980;-63.602;2023-04-06T11:34:32;18.30;99.90
59961;DHT22;55902;-37.980;-63.602;2023-04-06T11:37:01;17.90;99.90
59961;DHT22;55902;-37.980;-63.602;2023-04-06T11:39:29;17.60;99.90
59961;DHT22;55902;-37.980;-63.602;2023-04-06T11:42:02;17.40;99.90
59961;DHT22;55902;-37.980;-63.602;2023-04-06T11:44:37;17.20;99.90
59961;DHT22;55902;-37.980;-63.602;2023-04-06T11:47:10;16.90;99.90
59961;DHT22;55902;-37.980;-63.602;2023-04-06T11:49:38;16.80;99.90
59961;DHT22;55902;-37.980;-63.602;2023-04-06T11:52:24;16.70;99.90
59961;DHT22;55902;-37.980;-63.602;2023-04-06T11:54:53;16.60;99.90
59961;DHT22;55902;-37.980;-63.602;2023-04-06T11:57:21;16.50;99.90
59961;DHT22;55902;-37.980;-63.602;2023-04-06T11:59:52;16.50;99.90
59961;DHT22;55902;-37.980;-63.602;2023-04-06T12:02:19;16.40;99.90
59961;DHT22;55902;-37.980;-63.602;2023-04-06T12:04:49;16.30;99.90
59961;DHT22;55902;-37.980;-63.602;2023-04-06T12:07:16;16.30;99.90
59961;DHT22;55902;-37.980;-63.602;2023-04-06T12:09:43;16.30;99.90
59961;DHT22;55902;-37.980;-63.602;2023-04-06T12:12:10;16.30;99.90
59961;DHT22;55902;-37.980;-63.602;2023-04-06T12:14:37;16.30;99.90
59961;DHT22;55902;-37.980;-63.602;2023-04-06T12:17:04;16.30;99.90
59961;DHT22;55902;-37.980;-63.602;2023-04-06T12:19:31;16.30;99.90
59961;DHT22;55902;-37.980;-63.602;2023-04-06T12:21:58;16.30;99.90
59961;DHT22;55902;-37.980;-63.602;2023-04-06T12:24:25;16.20;99.90
59961;DHT22;55902;-37.980;-63.602;2023-04-06T12:26:53;16.20;99.90
59961;DHT22;55902;-37.980;-63.602;2023-04-06T12:29:21;16.20;99.90
59961;DHT22;55902;-37.980;-63.602;2023-04-06T12:31:48;16.20;99.90
59961;DHT22;55902;-37.980;-63.602;2023-04-06T12:34:15;16.20;99.90
59961;DHT22;55902;-37.980;-63.602;2023-04-06T12:36:42;16.20;99.90
59961;DHT22;55902;-37.980;-63.602;2023-04-06T12:39:09;16.20;99.90
59961;DHT22;55902;-37.980;-63.602;2023-04-06T12:41:37;16.30;99.90
59961;DHT22;55902;-37.980;-63.602;2023-04-06T12:44:07;16.30;99.90
59961;DHT22;55902;-37.980;-63.602;2023-04-06T12:46:34;16.30;99.90
59961;DHT22;55902;-37.980;-63.602;2023-04-06T12:49:01;16.20;99.90
59961;DHT22;55902;-37.980;-63.602;2023-04-06T12:51:29;16.20;99.90
59961;DHT22;55902;-37.980;-63.602;2023-04-06T12:53:57;16.20;99.90
59961;DHT22;55902;-37.980;-63.602;2023-04-06T12:56:24;16.20;99.90
59961;DHT22;55902;-37.980;-63.602;2023-04-06T12:58:51;16.30;99.90
59961;DHT22;55902;-37.980;-63.602;2023-04-06T13:01:20;16.30;99.90
59961;DHT22;55902;-37.980;-63.602;2023-04-06T13:03:47;16.30;99.90
59961;DHT22;55902;-37.980;-63.602;2023-04-06T13:06:14;16.20;99.90
59961;DHT22;55902;-37.980;-63.602;2023-04-06T13:08:41;16.30;99.90
59961;DHT22;55902;-37.980;-63.602;2023-04-06T13:11:08;16.30;99.90
59961;DHT22;55902;-37.980;-63.602;2023-04-06T13:13:36;16.30;99.90
59961;DHT22;55902;-37.980;-63.602;2023-04-06T13:16:07;16.30;99.90
59961;DHT22;55902;-37.980;-63.602;2023-04-06T13:18:35;16.30;99.90
59961;DHT22;55902;-37.980;-63.602;2023-04-06T13:21:05;16.30;99.90
59961;DHT22;55902;-37.980;-63.602;2023-04-06T13:23:32;16.30;99.90
59961;DHT22;55902;-37.980;-63.602;2023-04-06T13:26:09;16.20;99.90
59961;DHT22;55902;-37.980;-63.602;2023-04-06T13:28:37;16.20;99.90
59961;DHT22;55902;-37.980;-63.602;2023-04-06T13:31:05;16.20;99.90
59961;DHT22;55902;-37.980;-63.602;2023-04-06T13:33:32;16.20;99.90
59961;DHT22;55902;-37.980;-63.602;2023-04-06T13:36:00;16.20;99.90
59961;DHT22;55902;-37.980;-63.602;2023-04-06T13:38:27;16.20;99.90
59961;DHT22;55902;-37.980;-63.602;2023-04-06T13:40:54;16.20;99.90
59961;DHT22;55902;-37.980;-63.602;2023-04-06T13:43:22;16.20;99.90
59961;DHT22;55902;-37.980;-63.602;2023-04-06T13:45:52;16.20;99.90
59961;DHT22;55902;-37.980;-63.602;2023-04-06T13:48:20;16.30;99.90
59961;DHT22;55902;-37.980;-63.602;2023-04-06T13:50:47;16.30;99.90
59961;DHT22;55902;-37.980;-63.602;2023-04-06T13:53:14;16.20;99.90
59961;DHT22;55902;-37.980;-63.602;2023-04-06T13:55:41;16.20;99.90
59961;DHT22;55902;-37.980;-63.602;2023-04-06T13:58:08;16.20;99.90
59961;DHT22;55902;-37.980;-63.602;2023-04-06T14:00:35;16.20;99.90
59961;DHT22;55902;-37.980;-63.602;2023-04-06T14:03:03;16.20;99.90
59961;DHT22;55902;-37.980;-63.602;2023-04-06T14:05:33;16.10;99.90
59961;DHT22;55902;-37.980;-63.602;2023-04-06T14:18:31;15.90;99.90
59961;DHT22;55902;-37.980;-63.602;2023-04-06T14:21:00;15.80;99.90
59961;DHT22;55902;-37.980;-63.602;2023-04-06T14:23:30;15.80;99.90
59961;DHT22;55902;-37.980;-63.602;2023-04-06T14:26:05;15.80;99.90
59961;DHT22;55902;-37.980;-63.602;2023-04-06T14:28:35;15.70;99.90
59961;DHT22;55902;-37.980;-63.602;2023-04-06T14:31:09;15.70;99.90
59961;DHT22;55902;-37.980;-63.602;2023-04-06T14:33:36;15.70;99.90
59961;DHT22;55902;-37.980;-63.602;2023-04-06T14:36:03;15.70;99.90
59961;DHT22;55902;-37.980;-63.602;2023-04-06T14:38:32;15.70;99.90
59961;DHT22;55902;-37.980;-63.602;2023-04-06T14:40:59;15.70;99.90
59961;DHT22;55902;-37.980;-63.602;2023-04-06T14:43:26;15.80;99.90
59961;DHT22;55902;-37.980;-63.602;2023-04-06T14:45:59;15.80;99.90
59961;DHT22;55902;-37.980;-63.602;2023-04-06T14:48:26;15.90;99.90
59961;DHT22;55902;-37.980;-63.602;2023-04-06T14:50:54;15.90;99.90
59961;DHT22;55902;-37.980;-63.602;2023-04-06T14:53:25;15.90;99.90
59961;DHT22;55902;-37.980;-63.602;2023-04-06T14:55:52;15.90;99.90
59961;DHT22;55902;-37.980;-63.602;2023-04-06T14:58:20;16.00;99.90
59961;DHT22;55902;-37.980;-63.602;2023-04-06T15:00:48;16.00;99.90
59961;DHT22;55902;-37.980;-63.602;2023-04-06T15:03:15;16.00;99.90
59961;DHT22;55902;-37.980;-63.602;2023-04-06T15:05:42;16.00;99.90
59961;DHT22;55902;-37.980;-63.602;2023-04-06T15:08:09;16.10;99.90
59961;DHT22;55902;-37.980;-63.602;2023-04-06T15:10:39;16.10;99.90
59961;DHT22;55902;-37.980;-63.602;2023-04-06T15:13:06;16.10;99.90
59961;DHT22;55902;-37.980;-63.602;2023-04-06T15:15:35;16.10;99.90
59961;DHT22;55902;-37.980;-63.602;2023-04-06T15:18:04;16.10;99.90
59961;DHT22;55902;-37.980;-63.602;2023-04-06T15:20:31;16.10;99.90
59961;DHT22;55902;-37.980;-63.602;2023-04-06T15:22:58;16.10;99.90
59961;DHT22;55902;-37.980;-63.602;2023-04-06T15:25:26;16.10;99.90
59961;DHT22;55902;-37.980;-63.602;2023-04-06T15:27:56;16.10;99.90